Glenoma, WA (98336)

8:13 PM PDT on September 03, 2015 (GMT -0700)
Lost Creek | | Change Station
CLOSE
Current Station
Personal Weather Station
Location: Glenoma, WA
Elevation: 1119 ft
Nearby Weather Stations

Elev 1119 ft 46.54 °N, 122.06 °W | Updated 16 seconds ago

Partly Cloudy
Partly Cloudy
51.8 °F
Feels Like 51.8 °F
N
1.3
Wind Variable Wind from WSW
Gusts 2.7 mph

Today
High -- | Low -- °F
--% Chance of Precip.
Yesterday
High -- | Low -- °F
Precip. -- in
6:30 AM 7:43 PM
Waning Gibbous, 64% visible
Pressure 30.00 in
Visibility 10.0 miles
Clouds Scattered Clouds 6000 ft
Mostly Cloudy 7500 ft
Mostly Cloudy 9000 ft
Dew Point 46 °F
Humidity 82%
Rainfall 0.83 in
Snow Depth Not available.
UV 0 out of 12
Pollen 1.70 out of 12
Air Quality Not available.
Flu Activity Not available.
METAR KPLU 040255Z AUTO 00000KT 10SM SCT060 BKN075 BKN090 15/10 A3000 RMK AO2
Pressure 30.00 in
Visibility 10.0 miles
Clouds Scattered Clouds 6000 ft
Mostly Cloudy 7500 ft
Mostly Cloudy 9000 ft
Dew Point 46 °F
Humidity 82%
Rainfall 0.83 in
Snow Depth Not available.
UV 0 out of 12
Pollen 1.70 out of 12
Air Quality Not available.
Flu Activity Not available.
METAR KPLU 040255Z AUTO 00000KT 10SM SCT060 BKN075 BKN090 15/10 A3000 RMK AO2

10-Day Weather Forecast

×

Almanac

Astronomy

Sep. 03, 2015 Rise Set
Actual Time
Civil Twilight
Nautical Twilight
Astronomical Twilight
Moon
Length of Visible Light
Length of Day
Tomorrow will be .
, % of the Moon is Illuminated

Today's Extremes

State Highs State Lows

Community

WunderPhotos

Upload Photos

1,852,110 photos uploaded!

WunderBlogs® & News

Nearby

Air Quality

  Air Quality AQ Index Pollutant
Not available.

Snow Depth

Station Depth Elevation

Earthquake Activity

City Distance Mag. Time & Date
Minimum magnitude displayed is 2.5.

Coastal Water Temperatures

Place Temperature

Stations

Nearby Weather Stations

Station Location Temp. Windchill Dew Point Humidity Wind Precip. Elev Updated Type